Time;durP1;ratioP1;P1;durP2;ratioP2;P2;SDS_P1;SDS_P2;PMS_P1;PMS_P2;Temp;Humidity;BMP_temperature;BMP_pressure;BME280_temperature;BME280_humidity;BME280_pressure;Samples;Min_cycle;Max_cycle;Signal;HPM_P1;HPM_P2
2023/10/18 00:02:17;;;;;;;13.63;7.65;;;6.80;99.90;;;;;;5033287;28;20190;-67
2023/10/18 00:04:44;;;;;;;13.73;7.45;;;6.80;99.90;;;;;;5033478;28;20354;-60
2023/10/18 00:07:12;;;;;;;14.32;7.78;;;6.80;99.90;;;;;;5033216;28;20188;-65
2023/10/18 00:09:49;;;;;;;12.70;7.82;;;6.80;99.90;;;;;;5032817;28;20184;-66
2023/10/18 00:12:20;;;;;;;11.65;7.97;;;6.70;99.90;;;;;;5032965;28;20183;-66
2023/10/18 00:14:49;;;;;;;14.68;8.70;;;6.80;99.90;;;;;;5015293;28;20176;-63
2023/10/18 00:17:15;;;;;;;14.32;8.60;;;6.80;99.90;;;;;;5032767;28;20485;-62
2023/10/18 00:19:41;;;;;;;15.05;8.85;;;6.80;99.90;;;;;;5032494;28;20176;-66
2023/10/18 00:22:12;;;;;;;14.73;9.10;;;6.80;99.90;;;;;;5032655;28;20579;-63
2023/10/18 00:24:39;;;;;;;16.35;9.45;;;6.80;99.90;;;;;;5015087;28;20279;-65
2023/10/18 00:27:05;;;;;;;18.13;9.38;;;6.80;99.90;;;;;;5015493;28;20282;-62
2023/10/18 00:29:34;;;;;;;16.92;9.93;;;6.80;99.90;;;;;;5032252;28;20183;-62
2023/10/18 00:32:00;;;;;;;20.17;10.52;;;6.70;99.90;;;;;;5014509;28;20572;-62
2023/10/18 00:34:27;;;;;;;17.50;9.70;;;6.80;99.90;;;;;;5014724;28;20199;-64
2023/10/18 00:36:54;;;;;;;18.13;9.98;;;6.70;99.90;;;;;;5015044;28;20180;-65
2023/10/18 00:39:27;;;;;;;16.88;9.50;;;6.70;99.90;;;;;;5032070;28;20184;-61
2023/10/18 00:41:54;;;;;;;17.15;9.95;;;6.70;99.90;;;;;;5032351;28;20245;-62
2023/10/18 00:44:21;;;;;;;17.17;11.02;;;6.70;99.90;;;;;;5031712;28;20180;-64
2023/10/18 00:46:51;;;;;;;18.88;10.90;;;6.70;99.90;;;;;;5032232;28;20187;-66
2023/10/18 00:49:18;;;;;;;21.48;11.35;;;6.70;99.90;;;;;;5032292;28;20180;-62
2023/10/18 00:51:44;;;;;;;25.92;11.63;;;6.70;99.90;;;;;;5032455;28;20528;-60
2023/10/18 00:54:14;;;;;;;18.67;11.75;;;6.60;99.90;;;;;;5014344;28;20227;-61
2023/10/18 00:56:43;;;;;;;18.33;12.00;;;6.60;99.90;;;;;;5032162;28;20263;-64
2023/10/18 00:59:26;;;;;;;21.25;12.10;;;6.60;99.90;;;;;;5032571;28;20192;-60
2023/10/18 01:01:59;;;;;;;20.25;12.48;;;6.60;99.90;;;;;;5014115;28;20193;-62
2023/10/18 01:04:28;;;;;;;25.10;13.23;;;6.60;99.90;;;;;;5032178;28;20321;-65
2023/10/18 01:06:57;;;;;;;20.67;13.10;;;6.50;99.90;;;;;;5031555;28;20630;-65
2023/10/18 01:09:24;;;;;;;22.65;13.98;;;6.60;99.90;;;;;;5016315;28;20187;-61
2023/10/18 01:11:52;;;;;;;25.58;14.00;;;6.50;99.90;;;;;;4999120;28;20180;-65
2023/10/18 01:14:18;;;;;;;21.48;12.65;;;6.50;99.90;;;;;;5014474;28;20681;-60
2023/10/18 01:16:45;;;;;;;21.85;13.75;;;6.50;99.90;;;;;;5014507;28;20266;-68
2023/10/18 01:19:14;;;;;;;21.05;12.63;;;6.50;99.90;;;;;;5013850;28;20180;-64
2023/10/18 01:21:45;;;;;;;26.88;15.15;;;6.50;99.90;;;;;;5013829;28;20180;-65
2023/10/18 01:24:14;;;;;;;21.67;14.68;;;6.40;99.90;;;;;;5031606;28;20258;-64
2023/10/18 01:26:41;;;;;;;23.05;14.65;;;6.40;99.90;;;;;;5013752;28;20210;-61
2023/10/18 01:29:09;;;;;;;23.05;14.23;;;6.40;99.90;;;;;;5031580;28;20613;-64
2023/10/18 01:31:45;;;;;;;23.23;15.07;;;6.40;99.90;;;;;;5014219;28;20263;-66
2023/10/18 01:34:11;;;;;;;27.08;15.77;;;6.40;99.90;;;;;;5013682;28;20214;-65
2023/10/18 01:36:41;;;;;;;25.77;15.63;;;6.40;99.90;;;;;;5031617;28;20267;-61
2023/10/18 01:39:18;;;;;;;27.77;16.35;;;6.40;99.90;;;;;;5013490;28;20262;-61
2023/10/18 01:41:53;;;;;;;26.27;15.95;;;6.40;99.90;;;;;;5034441;28;20624;-60
2023/10/18 01:44:28;;;;;;;31.83;16.58;;;6.40;99.90;;;;;;5035337;28;20201;-64
2023/10/18 01:47:02;;;;;;;30.52;16.55;;;6.30;99.90;;;;;;5018196;28;20218;-62
2023/10/18 01:49:29;;;;;;;24.73;16.73;;;6.30;99.90;;;;;;5018678;28;20245;-67
2023/10/18 01:51:57;;;;;;;26.98;17.23;;;6.30;99.90;;;;;;5017601;28;20304;-61
2023/10/18 01:54:26;;;;;;;26.60;17.52;;;6.30;99.90;;;;;;5035479;28;20297;-61
2023/10/18 01:56:54;;;;;;;24.60;16.92;;;6.30;99.90;;;;;;5017439;28;20180;-61
2023/10/18 01:59:27;;;;;;;27.10;17.90;;;6.30;99.90;;;;;;5017652;28;20271;-63
2023/10/18 02:01:55;;;;;;;28.85;17.50;;;6.30;99.90;;;;;;5001776;28;20169;-63
2023/10/18 02:04:40;;;;;;;26.25;17.52;;;6.30;99.90;;;;;;5035189;28;20203;-67
2023/10/18 02:07:07;;;;;;;29.23;17.77;;;6.30;99.90;;;;;;5034967;28;20242;-62
2023/10/18 02:10:21;;;;;;;28.55;17.25;;;6.30;99.90;;;;;;5017596;28;20180;-61
2023/10/18 02:12:23;;;;;;;28.80;17.85;;;6.30;99.90;;;;;;5027031;28;20188;-61
2023/10/18 02:14:51;;;;;;;31.00;18.25;;;6.30;99.90;;;;;;5017187;28;20192;-65
2023/10/18 02:17:21;;;;;;;26.45;17.15;;;6.30;99.90;;;;;;5034935;28;20192;-64
2023/10/18 02:19:48;;;;;;;27.90;17.00;;;6.20;99.90;;;;;;5035502;28;20183;-67
2023/10/18 02:22:16;;;;;;;27.95;16.98;;;6.20;99.90;;;;;;5035105;28;20179;-62
2023/10/18 02:24:45;;;;;;;30.45;17.50;;;6.20;99.90;;;;;;5034722;28;20216;-61
2023/10/18 02:27:19;;;;;;;26.65;17.67;;;6.20;99.90;;;;;;5017305;28;20175;-66
2023/10/18 02:29:46;;;;;;;29.05;16.95;;;6.20;99.90;;;;;;5017186;28;20654;-62
2023/10/18 02:32:23;;;;;;;25.42;16.50;;;6.20;99.90;;;;;;5035224;28;20333;-66
2023/10/18 02:34:52;;;;;;;26.85;15.98;;;6.20;99.90;;;;;;5033672;28;20245;-61
2023/10/18 02:37:24;;;;;;;25.67;16.40;;;6.20;99.90;;;;;;5034889;28;20176;-62
2023/10/18 02:39:51;;;;;;;26.67;16.25;;;6.20;99.90;;;;;;5035302;28;20164;-61
2023/10/18 02:42:18;;;;;;;25.92;16.45;;;6.10;99.90;;;;;;5016928;28;20191;-67
2023/10/18 02:44:44;;;;;;;24.98;15.77;;;6.10;99.90;;;;;;5000878;28;20218;-60
2023/10/18 02:47:22;;;;;;;24.10;15.55;;;6.10;99.90;;;;;;5017614;28;20230;-65
2023/10/18 02:49:51;;;;;;;23.92;15.27;;;6.10;99.90;;;;;;5035071;28;20176;-65
2023/10/18 02:52:18;;;;;;;24.50;15.75;;;6.10;99.90;;;;;;5034662;28;20259;-66
2023/10/18 02:54:45;;;;;;;28.05;16.10;;;6.10;99.90;;;;;;5000489;28;20290;-62
2023/10/18 02:57:13;;;;;;;22.83;15.20;;;6.00;99.90;;;;;;5016648;28;20682;-60
2023/10/18 02:59:41;;;;;;;25.42;14.93;;;6.10;99.90;;;;;;5016514;28;20194;-61
2023/10/18 03:02:13;;;;;;;23.27;15.20;;;6.00;99.90;;;;;;5016386;28;20208;-63
2023/10/18 03:04:42;;;;;;;23.13;14.38;;;6.00;99.90;;;;;;5033936;28;20295;-66
2023/10/18 03:07:13;;;;;;;26.13;14.10;;;6.00;99.90;;;;;;5033959;28;20172;-63
2023/10/18 03:09:40;;;;;;;25.02;14.85;;;6.00;99.90;;;;;;5016604;28;20173;-64
2023/10/18 03:12:15;;;;;;;22.98;15.07;;;6.00;99.90;;;;;;5016379;28;20621;-62
2023/10/18 03:14:56;;;;;;;24.40;15.30;;;6.00;99.90;;;;;;5034250;28;20168;-64
2023/10/18 03:17:28;;;;;;;22.38;14.65;;;6.00;99.90;;;;;;5016133;28;20266;-67
2023/10/18 03:19:55;;;;;;;25.17;15.02;;;6.00;99.90;;;;;;5016082;28;20167;-63
2023/10/18 03:22:23;;;;;;;22.15;13.98;;;6.00;99.90;;;;;;5034226;28;20234;-61
2023/10/18 03:24:58;;;;;;;18.85;13.57;;;6.00;99.90;;;;;;5016073;28;20215;-64
2023/10/18 03:27:33;;;;;;;21.92;14.63;;;6.00;99.90;;;;;;5016623;28;20195;-61
2023/10/18 03:30:11;;;;;;;21.27;14.52;;;6.00;99.90;;;;;;5034101;28;20172;-63
2023/10/18 03:32:38;;;;;;;22.63;14.63;;;6.00;99.90;;;;;;5016329;28;20164;-62
2023/10/18 03:35:08;;;;;;;21.20;14.32;;;6.00;99.90;;;;;;4999695;28;20249;-63
2023/10/18 03:37:39;;;;;;;23.55;14.25;;;5.90;99.90;;;;;;5015954;28;20176;-67
2023/10/18 03:40:29;;;;;;;24.67;15.25;;;6.00;99.90;;;;;;5016525;28;20171;-66
2023/10/18 03:42:55;;;;;;;22.27;14.23;;;6.00;99.90;;;;;;5016360;28;20671;-64
2023/10/18 03:45:21;;;;;;;22.52;15.02;;;6.00;99.90;;;;;;4999767;28;20305;-62
2023/10/18 03:47:57;;;;;;;24.10;15.85;;;6.00;99.90;;;;;;5015561;28;20183;-67
2023/10/18 03:50:40;;;;;;;25.50;15.80;;;5.90;99.90;;;;;;5015791;28;20172;-66
2023/10/18 03:53:13;;;;;;;24.88;16.50;;;5.90;99.90;;;;;;5032126;28;20176;-64
2023/10/18 03:55:39;;;;;;;24.65;15.55;;;5.90;99.90;;;;;;5032190;28;20172;-59
2023/10/18 03:58:05;;;;;;;22.98;14.95;;;5.90;99.90;;;;;;5015220;28;20259;-62
2023/10/18 04:00:37;;;;;;;27.63;16.05;;;5.90;99.90;;;;;;5032989;28;20190;-61
2023/10/18 04:03:12;;;;;;;30.75;16.17;;;5.90;99.90;;;;;;5015186;28;20247;-67
2023/10/18 04:08:04;;;;;;;26.15;16.35;;;5.90;99.90;;;;;;5033124;28;20172;-62
2023/10/18 04:10:35;;;;;;;24.15;16.48;;;5.90;99.90;;;;;;5016319;28;20191;-63
2023/10/18 04:13:11;;;;;;;26.02;17.50;;;5.90;99.90;;;;;;5033379;28;20196;-62
2023/10/18 04:15:38;;;;;;;28.38;17.88;;;5.90;99.90;;;;;;5033144;28;20592;-62
2023/10/18 04:20:36;;;;;;;26.27;17.40;;;5.80;99.90;;;;;;5032913;28;20179;-62
2023/10/18 04:23:12;;;;;;;30.88;18.73;;;5.80;99.90;;;;;;5014885;28;20171;-63
2023/10/18 04:25:38;;;;;;;30.40;19.35;;;5.80;99.90;;;;;;5015275;28;20188;-63
2023/10/18 04:28:04;;;;;;;28.98;20.02;;;5.80;99.90;;;;;;5032524;28;20180;-63
2023/10/18 04:30:31;;;;;;;32.67;19.98;;;5.80;99.90;;;;;;5032677;28;20184;-66
2023/10/18 04:33:00;;;;;;;28.73;19.05;;;5.80;99.90;;;;;;5015125;28;20274;-64
2023/10/18 04:35:33;;;;;;;31.25;21.02;;;5.80;99.90;;;;;;5032324;28;20201;-64
2023/10/18 04:37:59;;;;;;;34.22;20.73;;;5.80;99.90;;;;;;5015178;28;20168;-67
2023/10/18 04:40:26;;;;;;;33.47;20.98;;;5.80;99.90;;;;;;5032505;28;20433;-64
2023/10/18 04:42:56;;;;;;;30.52;19.48;;;5.80;99.90;;;;;;5032549;28;20263;-65
2023/10/18 04:45:26;;;;;;;34.45;20.83;;;5.80;99.90;;;;;;5032521;28;20689;-64
2023/10/18 04:48:59;;;;;;;31.25;21.33;;;5.80;99.90;;;;;;5015072;28;20206;-68
2023/10/18 04:50:52;;;;;;;37.08;21.75;;;5.80;99.90;;;;;;5012336;28;20773;-61
2023/10/18 04:53:23;;;;;;;30.70;20.02;;;5.80;99.90;;;;;;5032127;28;20235;-62
2023/10/18 04:55:50;;;;;;;31.73;20.88;;;5.80;99.90;;;;;;5030984;28;20210;-66
2023/10/18 04:58:16;;;;;;;36.42;22.25;;;5.80;99.90;;;;;;4998806;28;20206;-66
2023/10/18 05:00:57;;;;;;;34.15;21.20;;;5.70;99.90;;;;;;5014831;28;20504;-63
2023/10/18 05:03:30;;;;;;;33.35;21.98;;;5.70;99.90;;;;;;5032279;28;20168;-65
2023/10/18 05:06:00;;;;;;;37.53;22.23;;;5.70;99.90;;;;;;5014496;28;20195;-67
2023/10/18 05:08:30;;;;;;;34.80;21.83;;;5.70;99.90;;;;;;5030535;28;20636;-63
2023/10/18 05:11:22;;;;;;;33.15;22.02;;;5.70;99.90;;;;;;5013964;28;20171;-68
2023/10/18 05:13:42;;;;;;;38.20;23.27;;;5.70;99.90;;;;;;5031759;28;20205;-66
2023/10/18 05:16:11;;;;;;;37.70;23.08;;;5.70;99.90;;;;;;5013793;28;20263;-62
2023/10/18 05:18:37;;;;;;;34.03;20.92;;;5.70;99.90;;;;;;5031508;28;20179;-64
2023/10/18 05:21:10;;;;;;;36.30;23.63;;;5.70;99.90;;;;;;5031859;28;20290;-65
2023/10/18 05:23:36;;;;;;;37.65;23.85;;;5.70;99.90;;;;;;5014337;28;20178;-61
2023/10/18 05:26:08;;;;;;;41.78;24.15;;;5.70;99.90;;;;;;5014029;28;20211;-64
2023/10/18 05:29:00;;;;;;;37.70;23.90;;;5.70;99.90;;;;;;5031655;28;20156;-62
2023/10/18 05:33:57;;;;;;;38.10;24.90;;;5.70;99.90;;;;;;5014322;28;20188;-68
2023/10/18 05:38:50;;;;;;;37.92;24.13;;;5.70;99.90;;;;;;5032244;28;20225;-62
2023/10/18 05:43:58;;;;;;;37.65;24.20;;;5.70;99.90;;;;;;5013977;28;20225;-63
2023/10/18 05:46:27;;;;;;;41.25;26.08;;;5.70;99.90;;;;;;5014222;28;20631;-64
2023/10/18 05:48:55;;;;;;;44.03;26.17;;;5.70;99.90;;;;;;5013361;28;20644;-62
2023/10/18 05:52:16;;;;;;;41.30;25.45;;;5.70;99.90;;;;;;5031364;28;20241;-61
2023/10/18 05:54:08;;;;;;;39.13;24.85;;;5.80;99.90;;;;;;5017356;28;20694;-62
2023/10/18 05:56:36;;;;;;;40.30;24.75;;;5.80;99.90;;;;;;5031616;28;20180;-67
2023/10/18 05:59:27;;;;;;;41.15;25.42;;;5.80;99.90;;;;;;5031393;28;20183;-65
2023/10/18 06:01:54;;;;;;;42.80;25.33;;;5.80;99.90;;;;;;5031626;28;20333;-62
2023/10/18 06:04:26;;;;;;;38.47;24.55;;;5.80;99.90;;;;;;5031631;28;20176;-64
2023/10/18 06:07:10;;;;;;;44.35;25.90;;;5.80;99.90;;;;;;5031519;28;20164;-61
2023/10/18 06:09:46;;;;;;;41.47;25.00;;;5.80;99.90;;;;;;5015065;28;20176;-64
2023/10/18 06:12:27;;;;;;;42.08;25.23;;;5.80;99.90;;;;;;5032250;28;20188;-61
2023/10/18 06:14:57;;;;;;;40.63;24.65;;;5.80;99.90;;;;;;5032094;28;20180;-66
2023/10/18 06:17:26;;;;;;;41.38;25.23;;;5.80;99.90;;;;;;5031301;28;20200;-60
2023/10/18 06:19:52;;;;;;;42.95;26.00;;;5.80;99.90;;;;;;5013726;28;20191;-62
2023/10/18 06:22:28;;;;;;;38.55;25.30;;;5.90;99.90;;;;;;5031770;28;20274;-60
2023/10/18 06:24:57;;;;;;;39.38;24.20;;;5.90;99.90;;;;;;5031372;28;20274;-67
2023/10/18 06:27:23;;;;;;;38.58;24.30;;;5.90;99.90;;;;;;5033768;28;20184;-61
2023/10/18 06:29:55;;;;;;;39.90;24.58;;;5.90;99.90;;;;;;5034762;28;20192;-63
2023/10/18 06:32:25;;;;;;;38.67;25.90;;;5.90;99.90;;;;;;5035083;28;20219;-67
2023/10/18 06:34:57;;;;;;;42.58;26.05;;;5.90;99.90;;;;;;5035036;28;20172;-63
2023/10/18 06:37:24;;;;;;;41.28;24.95;;;5.90;99.90;;;;;;5035479;28;20175;-65
2023/10/18 06:39:58;;;;;;;38.65;23.95;;;5.90;99.90;;;;;;5001155;28;20180;-61
2023/10/18 06:42:27;;;;;;;43.83;26.25;;;5.90;99.90;;;;;;5035194;28;20191;-61
2023/10/18 06:44:54;;;;;;;41.00;26.10;;;5.90;99.90;;;;;;5016895;28;20227;-62
2023/10/18 06:47:30;;;;;;;43.67;26.23;;;6.00;99.90;;;;;;5034744;28;20184;-63
2023/10/18 06:49:59;;;;;;;40.72;25.98;;;6.00;99.90;;;;;;5034453;28;20206;-64
2023/10/18 06:52:40;;;;;;;40.40;25.45;;;6.00;99.90;;;;;;5033744;28;20624;-63
2023/10/18 06:55:07;;;;;;;42.42;25.27;;;6.00;99.90;;;;;;5034736;28;20240;-68
2023/10/18 06:57:36;;;;;;;40.33;25.92;;;6.10;99.90;;;;;;5034680;28;20194;-66
2023/10/18 07:00:07;;;;;;;38.58;25.30;;;6.10;99.90;;;;;;5034406;28;20176;-68
2023/10/18 07:02:33;;;;;;;40.05;25.45;;;6.10;99.90;;;;;;5034292;28;20172;-62
2023/10/18 07:05:00;;;;;;;37.28;22.33;;;6.20;99.90;;;;;;5016457;28;20207;-62
2023/10/18 07:07:26;;;;;;;42.97;25.52;;;6.20;99.90;;;;;;5034182;28;20191;-64
2023/10/18 07:09:54;;;;;;;40.17;25.48;;;6.20;99.90;;;;;;5034480;28;20270;-65
2023/10/18 07:12:26;;;;;;;39.30;24.05;;;6.30;99.90;;;;;;5016512;28;20180;-70
2023/10/18 07:14:56;;;;;;;36.97;23.92;;;6.30;99.90;;;;;;5034387;28;20180;-66
2023/10/18 07:17:24;;;;;;;39.47;25.05;;;6.40;99.90;;;;;;5034511;28;20576;-65
2023/10/18 07:19:55;;;;;;;39.55;25.20;;;6.40;99.90;;;;;;5016258;28;20191;-62
2023/10/18 07:22:39;;;;;;;43.03;25.20;;;6.40;99.90;;;;;;5033681;28;20233;-66
2023/10/18 07:25:08;;;;;;;42.53;25.92;;;6.50;99.90;;;;;;5033987;28;20200;-64
2023/10/18 07:27:39;;;;;;;38.22;23.55;;;6.60;99.90;;;;;;5034278;28;20220;-62
2023/10/18 07:30:14;;;;;;;36.83;24.40;;;6.60;99.90;;;;;;5034131;28;20180;-68
2023/10/18 07:32:47;;;;;;;41.53;24.02;;;6.70;99.90;;;;;;5034012;28;20168;-64
2023/10/18 07:35:30;;;;;;;38.35;23.65;;;6.70;99.90;;;;;;5032602;28;20601;-66
2023/10/18 07:37:56;;;;;;;41.63;23.98;;;6.70;99.90;;;;;;5015289;28;20199;-62
2023/10/18 07:40:23;;;;;;;40.97;24.10;;;6.80;99.90;;;;;;5016088;28;20188;-66
2023/10/18 07:42:53;;;;;;;36.75;22.90;;;6.90;99.90;;;;;;5033779;28;20263;-61
2023/10/18 07:45:21;;;;;;;36.40;24.10;;;6.90;99.90;;;;;;5015799;28;20253;-68
2023/10/18 07:47:53;;;;;;;37.10;23.13;;;7.00;99.90;;;;;;5033567;28;20184;-67
2023/10/18 07:50:34;;;;;;;34.45;22.55;;;7.00;99.90;;;;;;5016485;28;20172;-62
2023/10/18 07:53:01;;;;;;;36.40;23.20;;;7.10;99.90;;;;;;5033867;28;20168;-61
2023/10/18 07:55:28;;;;;;;34.38;20.90;;;7.20;99.90;;;;;;5015931;28;20176;-63
2023/10/18 07:57:57;;;;;;;37.83;22.70;;;7.20;99.90;;;;;;5033445;28;20180;-62
2023/10/18 08:00:23;;;;;;;40.25;22.67;;;7.30;99.90;;;;;;5033582;28;20229;-60
2023/10/18 08:02:49;;;;;;;35.58;22.83;;;7.40;99.90;;;;;;5033365;28;20207;-68
2023/10/18 08:05:21;;;;;;;39.53;22.60;;;7.40;99.90;;;;;;4999376;28;20688;-63
2023/10/18 08:07:55;;;;;;;35.22;22.13;;;7.50;99.90;;;;;;5015920;28;20180;-64
2023/10/18 08:10:21;;;;;;;29.70;19.83;;;7.50;99.90;;;;;;5032115;28;20198;-67
2023/10/18 08:13:07;;;;;;;33.72;22.27;;;7.60;99.90;;;;;;5015546;28;20636;-62
2023/10/18 08:15:35;;;;;;;36.38;22.17;;;7.60;99.90;;;;;;5033534;28;20168;-68
2023/10/18 08:18:17;;;;;;;33.63;20.90;;;7.70;99.90;;;;;;5033007;28;20180;-62
2023/10/18 08:25:51;;;;;;;36.17;20.92;;;7.80;99.90;;;;;;5032674;28;20200;-63
2023/10/18 08:28:18;;;;;;;32.67;20.88;;;7.90;99.90;;;;;;5032774;28;20183;-61
2023/10/18 08:33:10;;;;;;;32.63;21.38;;;8.00;99.90;;;;;;5032577;28;20652;-61
2023/10/18 08:35:37;;;;;;;33.92;20.63;;;8.10;99.90;;;;;;5032244;28;20191;-64
2023/10/18 08:38:04;;;;;;;30.92;21.20;;;8.20;99.90;;;;;;5033052;28;20191;-68
2023/10/18 08:43:30;;;;;;;29.55;20.83;;;8.20;99.90;;;;;;5015187;28;20184;-62
2023/10/18 08:45:56;;;;;;;34.78;19.95;;;8.30;99.90;;;;;;5014663;28;20224;-60
2023/10/18 08:48:28;;;;;;;33.40;20.90;;;8.40;99.90;;;;;;5030825;28;20641;-63
2023/10/18 08:50:56;;;;;;;32.67;19.77;;;8.40;99.90;;;;;;5032418;28;20172;-69
2023/10/18 08:53:26;;;;;;;29.67;19.45;;;8.50;99.90;;;;;;5031786;28;20650;-68
2023/10/18 08:55:57;;;;;;;31.30;20.48;;;8.50;99.90;;;;;;5031686;28;20613;-64
2023/10/18 08:58:30;;;;;;;28.20;19.23;;;8.60;99.90;;;;;;5030993;28;20167;-63
2023/10/18 09:03:29;;;;;;;24.98;17.80;;;8.80;99.90;;;;;;5031780;28;20245;-68
2023/10/18 09:06:05;;;;;;;27.35;16.95;;;8.90;99.90;;;;;;5032373;28;20514;-62
2023/10/18 09:08:42;;;;;;;27.67;17.42;;;8.90;99.90;;;;;;5013966;28;20164;-63
2023/10/18 09:11:27;;;;;;;25.85;17.10;;;9.00;99.90;;;;;;5031709;28;20207;-68
2023/10/18 09:14:10;;;;;;;22.58;16.50;;;9.10;99.90;;;;;;5032000;28;20200;-69
2023/10/18 09:16:41;;;;;;;23.27;16.75;;;9.20;99.90;;;;;;5032146;28;20176;-62
2023/10/18 09:19:08;;;;;;;23.00;15.57;;;9.30;99.90;;;;;;5032391;28;20172;-66
2023/10/18 09:21:36;;;;;;;24.88;15.35;;;9.30;99.90;;;;;;5031790;28;20183;-66
2023/10/18 09:24:06;;;;;;;23.65;16.35;;;9.40;99.90;;;;;;5013886;28;20210;-67
2023/10/18 09:26:40;;;;;;;22.23;15.50;;;9.50;99.90;;;;;;5031357;28;20238;-69
2023/10/18 09:29:10;;;;;;;22.65;14.77;;;9.60;99.90;;;;;;5031414;28;20164;-61
2023/10/18 09:31:50;;;;;;;24.63;14.00;;;9.60;99.90;;;;;;5013694;28;20172;-61
2023/10/18 09:34:16;;;;;;;22.17;15.55;;;9.70;99.90;;;;;;5031777;28;20172;-60
2023/10/18 09:36:53;;;;;;;20.70;14.65;;;9.80;99.90;;;;;;5031468;28;20261;-69
2023/10/18 09:39:21;;;;;;;23.20;15.52;;;9.80;99.90;;;;;;5031865;28;20177;-69
2023/10/18 09:41:47;;;;;;;22.45;14.95;;;9.90;99.90;;;;;;5031969;28;20176;-68
2023/10/18 09:44:13;;;;;;;20.80;14.82;;;10.00;99.90;;;;;;5031826;28;20313;-68
2023/10/18 09:46:41;;;;;;;24.92;16.77;;;10.00;99.90;;;;;;5030655;28;20452;-57
2023/10/18 09:49:20;;;;;;;20.27;14.98;;;10.10;99.90;;;;;;5031813;28;20670;-58
2023/10/18 09:51:53;;;;;;;23.50;15.27;;;10.10;99.90;;;;;;5031875;28;20214;-57
2023/10/18 09:54:25;;;;;;;26.45;15.32;;;10.20;99.90;;;;;;5013951;28;20231;-60
2023/10/18 09:56:55;;;;;;;20.92;16.10;;;10.20;99.90;;;;;;5014338;28;20168;-57
2023/10/18 09:59:31;;;;;;;22.02;14.73;;;10.30;99.90;;;;;;5032072;28;20173;-63
2023/10/18 10:02:00;;;;;;;20.30;14.68;;;10.30;99.90;;;;;;5033569;28;20231;-63
2023/10/18 10:04:32;;;;;;;21.38;14.30;;;10.40;99.90;;;;;;5017415;28;20196;-58
2023/10/18 10:09:59;;;;;;;20.27;13.32;;;10.50;99.90;;;;;;5035130;28;20195;-60
2023/10/18 10:12:27;;;;;;;22.42;15.15;;;10.50;99.90;;;;;;5035326;28;20175;-58
2023/10/18 10:14:53;;;;;;;19.63;15.07;;;10.60;99.90;;;;;;5035242;28;20255;-63
2023/10/18 10:17:21;;;;;;;18.67;14.10;;;10.60;99.90;;;;;;5035083;28;20187;-60
2023/10/18 10:19:53;;;;;;;21.40;13.35;;;10.60;99.90;;;;;;5034345;28;20255;-59
2023/10/18 10:22:24;;;;;;;20.50;14.82;;;10.70;99.90;;;;;;5035147;28;20172;-59
2023/10/18 10:25:03;;;;;;;20.58;14.50;;;10.80;99.90;;;;;;5034996;28;20288;-60
2023/10/18 10:32:49;;;;;;;15.60;12.18;;;10.90;99.90;;;;;;5035011;28;20697;-62
2023/10/18 10:35:18;;;;;;;17.52;13.10;;;10.90;99.90;;;;;;5034895;28;20176;-59
2023/10/18 10:37:48;;;;;;;17.52;12.73;;;11.00;99.90;;;;;;5034878;28;20184;-54
2023/10/18 10:43:14;;;;;;;20.50;11.48;;;11.20;99.90;;;;;;5034901;28;20195;-58
2023/10/18 10:48:16;;;;;;;19.00;11.52;;;11.30;99.90;;;;;;5016751;28;20648;-56
2023/10/18 10:50:50;;;;;;;15.95;11.45;;;11.40;99.90;;;;;;5034687;28;20203;-59
2023/10/18 10:53:44;;;;;;;16.35;11.38;;;11.50;99.90;;;;;;5034213;28;20613;-61
2023/10/18 10:56:43;;;;;;;16.77;11.88;;;11.50;99.90;;;;;;5034198;28;20581;-53
2023/10/18 11:04:26;;;;;;;18.38;11.13;;;11.70;99.90;;;;;;5033943;28;20754;-58
2023/10/18 11:07:03;;;;;;;16.88;11.32;;;11.80;99.90;;;;;;5034368;28;20187;-61
2023/10/18 11:09:38;;;;;;;18.38;11.35;;;11.80;99.90;;;;;;5034286;28;20164;-59
2023/10/18 11:12:13;;;;;;;17.52;12.00;;;11.80;99.90;;;;;;5000331;28;20689;-62
2023/10/18 11:14:43;;;;;;;19.33;12.10;;;11.90;99.90;;;;;;5034171;28;20174;-57
2023/10/18 11:20:09;;;;;;;15.77;11.27;;;11.90;99.90;;;;;;5034005;28;20219;-60
2023/10/18 11:22:41;;;;;;;15.57;10.50;;;12.00;99.90;;;;;;5034272;28;20636;-56
2023/10/18 11:25:09;;;;;;;18.00;11.07;;;12.10;99.90;;;;;;5033277;28;20683;-53
2023/10/18 11:27:37;;;;;;;16.27;11.88;;;12.10;99.90;;;;;;5033279;28;20263;-61
2023/10/18 11:30:22;;;;;;;16.00;10.77;;;12.00;99.90;;;;;;5015880;28;20271;-58
2023/10/18 11:32:50;;;;;;;19.10;11.02;;;12.10;99.90;;;;;;5015929;28;20186;-60
2023/10/18 11:35:42;;;;;;;23.10;11.35;;;12.10;99.90;;;;;;5033684;28;20180;-57
2023/10/18 11:38:13;;;;;;;16.00;9.35;;;12.20;99.90;;;;;;5033237;28;20180;-60
2023/10/18 11:40:43;;;;;;;15.20;11.30;;;12.20;99.90;;;;;;5033737;28;20239;-59
2023/10/18 11:43:10;;;;;;;16.02;11.02;;;12.30;99.90;;;;;;5033195;28;20256;-54
2023/10/18 11:45:38;;;;;;;17.20;10.88;;;12.30;99.90;;;;;;5033509;28;20219;-60
2023/10/18 11:48:09;;;;;;;15.02;10.77;;;12.30;99.90;;;;;;5033048;28;20271;-57
2023/10/18 11:50:50;;;;;;;18.17;11.88;;;12.30;99.90;;;;;;5033161;28;20160;-53
2023/10/18 11:53:23;;;;;;;13.75;10.77;;;12.30;99.90;;;;;;5015840;28;20198;-60
2023/10/18 11:55:55;;;;;;;16.15;10.18;;;12.30;99.90;;;;;;5033115;28;20258;-63
2023/10/18 11:58:33;;;;;;;14.32;9.98;;;12.30;99.90;;;;;;5015607;28;20172;-61
2023/10/18 12:01:05;;;;;;;14.25;10.20;;;12.40;99.90;;;;;;5033407;28;20239;-58
2023/10/18 12:03:35;;;;;;;16.52;11.35;;;12.40;99.90;;;;;;5032826;28;20231;-59
2023/10/18 12:06:03;;;;;;;17.83;11.27;;;12.40;99.90;;;;;;5033444;28;20208;-56
2023/10/18 12:08:40;;;;;;;16.17;10.32;;;12.40;99.90;;;;;;5032815;28;20203;-56
2023/10/18 12:11:11;;;;;;;14.80;10.20;;;12.40;99.90;;;;;;5033381;28;20255;-59
2023/10/18 12:13:37;;;;;;;19.60;10.63;;;12.40;99.90;;;;;;5015614;28;20195;-58
2023/10/18 12:16:06;;;;;;;15.40;10.45;;;12.40;99.90;;;;;;5015197;28;20229;-54
2023/10/18 12:18:32;;;;;;;18.40;10.60;;;12.50;99.90;;;;;;5014863;28;20184;-57
2023/10/18 12:20:58;;;;;;;14.43;10.50;;;12.50;99.90;;;;;;5032994;28;20184;-55
2023/10/18 12:23:25;;;;;;;14.32;10.38;;;12.40;99.90;;;;;;5032574;28;20667;-60
2023/10/18 12:25:51;;;;;;;15.18;10.05;;;12.50;99.90;;;;;;5032019;28;20215;-59
2023/10/18 12:28:27;;;;;;;17.05;10.73;;;12.60;99.90;;;;;;5032770;28;20172;-55
2023/10/18 12:30:55;;;;;;;13.30;10.15;;;12.60;99.90;;;;;;5033248;28;20164;-56
2023/10/18 12:33:27;;;;;;;16.02;10.70;;;12.60;99.90;;;;;;5033313;28;20188;-60
2023/10/18 12:35:59;;;;;;;19.65;11.02;;;12.70;99.90;;;;;;5033159;28;20624;-56
2023/10/18 12:38:32;;;;;;;17.48;11.15;;;12.70;99.90;;;;;;5032576;28;20223;-60
2023/10/18 12:41:07;;;;;;;14.02;9.90;;;12.70;99.90;;;;;;5032535;28;20191;-60
2023/10/18 12:43:38;;;;;;;13.30;10.07;;;12.70;99.90;;;;;;5014567;28;20294;-56
2023/10/18 12:46:06;;;;;;;17.70;10.57;;;12.70;99.90;;;;;;5032429;28;20317;-55
2023/10/18 12:48:34;;;;;;;15.85;10.27;;;12.70;99.90;;;;;;5032387;28;20176;-60
2023/10/18 12:51:07;;;;;;;16.25;10.80;;;12.70;99.90;;;;;;5032278;28;20208;-54
2023/10/18 12:53:38;;;;;;;14.48;10.32;;;12.80;99.90;;;;;;5032406;28;20691;-56
2023/10/18 12:58:57;;;;;;;14.30;10.05;;;12.80;99.90;;;;;;5031993;28;20220;-58
2023/10/18 13:04:07;;;;;;;15.65;10.20;;;12.80;99.90;;;;;;5032500;28;20271;-59
2023/10/18 13:06:44;;;;;;;17.35;10.18;;;12.70;99.90;;;;;;5031752;28;20208;-61
2023/10/18 13:11:44;;;;;;;17.77;10.25;;;12.70;99.90;;;;;;5032120;28;20191;-58
2023/10/18 13:14:14;;;;;;;19.83;10.82;;;12.60;99.90;;;;;;5014848;28;20168;-63
2023/10/18 13:16:43;;;;;;;14.05;10.18;;;12.70;99.90;;;;;;5032519;28;20195;-61
2023/10/18 13:19:15;;;;;;;16.17;10.35;;;12.70;99.90;;;;;;5032101;28;20172;-62
2023/10/18 13:21:43;;;;;;;16.77;10.57;;;12.60;99.90;;;;;;5031549;28;20195;-58
2023/10/18 13:24:17;;;;;;;16.75;11.15;;;12.60;99.90;;;;;;5032364;28;20186;-56
2023/10/18 13:26:44;;;;;;;19.20;10.57;;;12.60;99.90;;;;;;5031188;28;20261;-56
2023/10/18 13:29:29;;;;;;;15.63;11.60;;;12.60;99.90;;;;;;5031628;28;20180;-59
2023/10/18 13:31:57;;;;;;;14.75;10.27;;;12.60;99.90;;;;;;5031822;28;20691;-61
2023/10/18 13:34:24;;;;;;;16.85;10.85;;;12.70;99.90;;;;;;5031509;28;20258;-58
2023/10/18 13:36:52;;;;;;;17.42;11.43;;;12.60;99.90;;;;;;5033129;28;20263;-58
2023/10/18 13:39:19;;;;;;;15.13;9.57;;;12.50;99.90;;;;;;5036031;28;20180;-61
2023/10/18 13:41:49;;;;;;;14.52;9.88;;;12.60;99.90;;;;;;5035677;28;20188;-60
2023/10/18 13:44:19;;;;;;;13.65;8.95;;;12.60;99.90;;;;;;5036370;28;20179;-61
2023/10/18 13:46:55;;;;;;;15.55;10.55;;;12.60;99.90;;;;;;5035967;28;20659;-59
2023/10/18 13:49:25;;;;;;;16.33;11.30;;;12.60;99.90;;;;;;5034292;28;20168;-58
2023/10/18 13:51:53;;;;;;;14.52;10.13;;;12.60;99.90;;;;;;5017966;28;20194;-59